Time;durP1;ratioP1;P1;durP2;ratioP2;P2;SDS_P1;SDS_P2;PMS_P1;PMS_P2;Temp;Humidity;BMP_temperature;BMP_pressure;BME280_temperature;BME280_humidity;BME280_pressure;Samples;Min_cycle;Max_cycle;Signal;HPM_P1;HPM_P2
2023/01/01 00:02:14;;;;;;;6.40;4.70;;;13.50;99.90;;;;;;10296111;28;20225;-82
2023/01/01 00:07:17;;;;;;;7.57;5.43;;;13.70;99.90;;;;;;10296159;28;20567;-82
2023/01/01 00:12:20;;;;;;;7.17;4.40;;;13.60;99.90;;;;;;10295777;28;20261;-82
2023/01/01 00:17:22;;;;;;;5.87;4.20;;;13.60;99.90;;;;;;10293926;28;20579;-82
2023/01/01 00:22:25;;;;;;;6.63;5.40;;;13.60;99.90;;;;;;10295654;28;20642;-82
2023/01/01 00:27:47;;;;;;;5.33;4.30;;;13.60;99.90;;;;;;10294428;28;20257;-82
2023/01/01 00:32:50;;;;;;;7.83;5.13;;;13.70;99.90;;;;;;10294395;28;20241;-82
2023/01/01 00:37:57;;;;;;;7.80;5.53;;;13.60;99.90;;;;;;10294851;28;20206;-82
2023/01/01 00:43:00;;;;;;;8.17;6.27;;;13.50;99.90;;;;;;10294911;28;20217;-82
2023/01/01 00:48:02;;;;;;;6.83;4.20;;;13.30;99.90;;;;;;10294324;28;20565;-82
2023/01/01 00:53:05;;;;;;;7.60;4.53;;;13.40;99.90;;;;;;10293823;28;20628;-82
2023/01/01 00:58:08;;;;;;;8.27;3.73;;;13.60;99.90;;;;;;10293989;28;20738;-82
2023/01/01 01:03:26;;;;;;;6.50;3.87;;;14.10;99.90;;;;;;10293537;28;20304;-82
2023/01/01 01:08:31;;;;;;;4.57;3.23;;;;;;;;;;10276568;28;20574;-82
2023/01/01 01:13:33;;;;;;;4.27;3.37;;;14.40;99.90;;;;;;10292063;28;20249;-82
2023/01/01 01:18:36;;;;;;;3.37;2.50;;;14.50;99.90;;;;;;10293246;28;20218;-82
2023/01/01 01:23:38;;;;;;;4.30;3.60;;;14.70;99.90;;;;;;10293539;28;20217;-82
2023/01/01 01:28:41;;;;;;;8.07;3.33;;;14.90;99.90;;;;;;10292956;28;20253;-82
2023/01/01 01:33:51;;;;;;;4.70;3.00;;;14.80;99.90;;;;;;10292237;28;20225;-82
2023/01/01 01:38:54;;;;;;;3.50;2.57;;;14.80;99.90;;;;;;10292946;28;20206;-82
2023/01/01 01:44:03;;;;;;;4.43;3.23;;;14.70;99.90;;;;;;10291880;28;20226;-82
2023/01/01 01:49:28;;;;;;;3.63;2.97;;;14.70;99.90;;;;;;10291749;28;20197;-82
2023/01/01 01:54:30;;;;;;;5.50;2.93;;;14.80;99.90;;;;;;10275232;28;20263;-82
2023/01/01 01:59:37;;;;;;;4.87;2.73;;;14.70;99.90;;;;;;10292189;28;20229;-82
2023/01/01 02:04:40;;;;;;;4.33;3.63;;;14.70;99.90;;;;;;10290860;28;20292;-82
2023/01/01 02:09:43;;;;;;;6.03;3.80;;;15.00;99.90;;;;;;10274357;28;20202;-82
2023/01/01 02:14:46;;;;;;;3.30;2.30;;;15.10;99.90;;;;;;10273741;28;20205;-82
2023/01/01 02:20:00;;;;;;;4.87;3.33;;;15.10;99.90;;;;;;10290754;28;20230;-82
2023/01/01 02:25:06;;;;;;;4.87;3.40;;;15.10;99.90;;;;;;10290406;28;20233;-82
2023/01/01 02:30:09;;;;;;;6.27;3.33;;;14.90;99.90;;;;;;10273604;28;20589;-82
2023/01/01 02:35:37;;;;;;;4.43;3.00;;;15.00;99.90;;;;;;10290329;28;20633;-82
2023/01/01 02:40:45;;;;;;;6.27;3.23;;;15.00;99.90;;;;;;10289516;28;20205;-82
2023/01/01 02:45:47;;;;;;;3.13;2.63;;;15.00;99.90;;;;;;10289818;28;20226;-82
2023/01/01 02:50:51;;;;;;;5.77;2.70;;;15.00;99.90;;;;;;10290598;28;20202;-82
2023/01/01 02:56:15;;;;;;;5.03;2.87;;;15.00;99.90;;;;;;10290438;28;20190;-82
2023/01/01 03:01:32;;;;;;;3.07;2.53;;;15.00;99.90;;;;;;10290016;28;20209;-82
2023/01/01 03:06:41;;;;;;;5.73;3.17;;;14.80;99.90;;;;;;10290299;28;20197;-82
2023/01/01 03:12:09;;;;;;;3.87;2.87;;;14.60;99.90;;;;;;10290477;28;20237;-82
2023/01/01 03:17:53;;;;;;;4.27;2.77;;;14.60;99.90;;;;;;10296636;28;20269;-82
2023/01/01 03:23:01;;;;;;;3.10;2.60;;;14.60;99.90;;;;;;10285081;28;20233;-82
2023/01/01 03:28:36;;;;;;;3.13;2.80;;;14.60;99.90;;;;;;10297560;28;20202;-82
2023/01/01 03:33:43;;;;;;;3.43;2.67;;;14.60;99.90;;;;;;10233365;29;20234;-82
2023/01/01 03:39:00;;;;;;;3.03;2.37;;;14.80;99.90;;;;;;10257173;29;20202;-82
2023/01/01 03:44:10;;;;;;;3.77;3.37;;;14.90;99.90;;;;;;10255701;29;20796;-82
2023/01/01 03:49:14;;;;;;;3.77;3.20;;;14.80;99.90;;;;;;10239020;29;20726;-82
2023/01/01 03:54:37;;;;;;;4.73;3.07;;;14.70;99.90;;;;;;10255103;29;20729;-82
2023/01/01 03:59:48;;;;;;;3.50;2.67;;;14.90;99.90;;;;;;10256205;29;20202;-82
2023/01/01 04:04:51;;;;;;;3.20;2.50;;;15.10;99.90;;;;;;10255767;29;20226;-82
2023/01/01 04:09:56;;;;;;;4.33;2.67;;;15.20;99.90;;;;;;10255773;29;20258;-82
2023/01/01 04:14:59;;;;;;;8.57;3.50;;;15.30;99.90;;;;;;10254333;29;20210;-82
2023/01/01 04:20:02;;;;;;;6.33;3.47;;;15.00;99.90;;;;;;10254383;29;20257;-82
2023/01/01 04:25:06;;;;;;;4.37;2.73;;;15.20;99.90;;;;;;10253963;28;20250;-82
2023/01/01 04:30:11;;;;;;;6.80;3.47;;;15.00;99.90;;;;;;10260237;28;20619;-82
2023/01/01 04:35:14;;;;;;;9.63;5.00;;;15.00;99.90;;;;;;10293549;28;20563;-82
2023/01/01 04:40:17;;;;;;;5.67;3.03;;;15.00;99.90;;;;;;10294757;28;20198;-82
2023/01/01 04:45:19;;;;;;;7.13;4.00;;;15.00;99.90;;;;;;10292980;28;20604;-82
2023/01/01 04:50:22;;;;;;;7.63;4.20;;;15.30;99.90;;;;;;10293794;28;20573;-82
2023/01/01 04:55:24;;;;;;;12.87;5.43;;;15.30;99.90;;;;;;10293333;28;20291;-82
2023/01/01 05:00:27;;;;;;;8.53;5.27;;;15.20;99.60;;;;;;10291936;28;20213;-82
2023/01/01 05:05:29;;;;;;;5.77;4.47;;;15.00;99.90;;;;;;10293344;28;20291;-82
2023/01/01 05:10:31;;;;;;;7.97;5.63;;;14.80;99.90;;;;;;10293659;28;20556;-82
2023/01/01 05:15:36;;;;;;;10.43;4.73;;;14.50;99.90;;;;;;10291997;28;20593;-82
2023/01/01 05:20:38;;;;;;;5.57;3.87;;;14.50;99.90;;;;;;10293136;28;20283;-82
2023/01/01 05:25:41;;;;;;;4.97;3.23;;;14.50;99.90;;;;;;10292889;28;20556;-82
2023/01/01 05:30:44;;;;;;;3.93;3.37;;;14.70;99.90;;;;;;10292265;28;20316;-82
2023/01/01 05:35:53;;;;;;;6.27;4.63;;;15.00;99.90;;;;;;10292269;28;20288;-82
2023/01/01 05:40:56;;;;;;;4.50;3.00;;;14.80;99.90;;;;;;10292211;28;20206;-82
2023/01/01 05:46:04;;;;;;;4.70;2.80;;;15.00;99.90;;;;;;10291777;28;20217;-82
2023/01/01 05:51:12;;;;;;;4.23;2.23;;;15.30;99.90;;;;;;10291051;28;20209;-82
2023/01/01 05:56:15;;;;;;;5.00;3.47;;;15.40;99.30;;;;;;10291250;28;20206;-82
2023/01/01 06:01:19;;;;;;;6.23;3.33;;;15.50;99.40;;;;;;10290753;28;20217;-82
2023/01/01 06:06:25;;;;;;;3.03;2.40;;;15.70;98.30;;;;;;10274143;28;20225;-82
2023/01/01 06:11:29;;;;;;;7.03;2.83;;;15.90;98.40;;;;;;10273786;28;20206;-82
2023/01/01 06:16:32;;;;;;;3.90;2.60;;;15.90;96.80;;;;;;10274075;28;20213;-82
2023/01/01 06:21:34;;;;;;;4.00;2.83;;;15.80;97.90;;;;;;10291446;28;20210;-82
2023/01/01 06:26:37;;;;;;;4.80;2.53;;;15.80;97.70;;;;;;10290556;28;20793;-82
2023/01/01 06:31:40;;;;;;;3.60;3.00;;;16.00;97.70;;;;;;10290989;28;20217;-82
2023/01/01 06:36:42;;;;;;;3.50;2.60;;;16.00;97.20;;;;;;10291051;28;20230;-82
2023/01/01 06:41:45;;;;;;;6.63;3.17;;;16.00;97.40;;;;;;10290398;28;20260;-82
2023/01/01 06:46:47;;;;;;;6.17;2.57;;;16.10;96.60;;;;;;10290843;28;20272;-82
2023/01/01 06:51:50;;;;;;;5.03;3.00;;;16.10;97.10;;;;;;10299286;28;20268;-82
2023/01/01 06:56:52;;;;;;;4.10;2.87;;;16.10;96.30;;;;;;10298715;28;20271;-82
2023/01/01 07:01:55;;;;;;;3.63;3.00;;;16.00;97.10;;;;;;10298641;28;20562;-82
2023/01/01 07:07:00;;;;;;;4.40;2.80;;;16.00;96.80;;;;;;10298681;28;20745;-82
2023/01/01 07:12:02;;;;;;;12.57;3.20;;;15.90;97.60;;;;;;10280950;28;20229;-82
2023/01/01 07:17:05;;;;;;;6.17;2.80;;;15.60;94.30;;;;;;10280352;28;20757;-82
2023/01/01 07:22:09;;;;;;;6.37;3.37;;;15.40;95.30;;;;;;10297871;28;20194;-82
2023/01/01 07:27:12;;;;;;;5.17;3.57;;;15.20;95.30;;;;;;10297843;28;20206;-82
2023/01/01 07:32:14;;;;;;;4.13;3.07;;;15.20;98.60;;;;;;10297318;28;20289;-82
2023/01/01 07:37:17;;;;;;;2.73;2.43;;;15.10;98.50;;;;;;10297061;28;20205;-82
2023/01/01 07:42:19;;;;;;;4.87;2.80;;;15.20;98.10;;;;;;10296831;28;20589;-82
2023/01/01 07:47:24;;;;;;;4.33;3.20;;;15.40;98.90;;;;;;10296878;28;20202;-82
2023/01/01 07:52:26;;;;;;;4.93;3.00;;;15.30;98.10;;;;;;10279296;28;20671;-82
2023/01/01 07:57:29;;;;;;;4.80;2.60;;;15.40;96.10;;;;;;10296756;28;20209;-82
2023/01/01 08:02:31;;;;;;;5.47;3.47;;;15.40;96.60;;;;;;10296429;28;20293;-82
2023/01/01 08:07:34;;;;;;;9.17;3.27;;;15.00;94.40;;;;;;10295647;28;20572;-82
2023/01/01 08:12:36;;;;;;;8.93;3.70;;;14.80;95.60;;;;;;10296090;28;20741;-82
2023/01/01 08:17:39;;;;;;;4.80;2.87;;;14.60;95.60;;;;;;10295760;28;20555;-82
2023/01/01 08:22:48;;;;;;;6.73;2.90;;;14.60;97.40;;;;;;10277616;28;20221;-82
2023/01/01 08:27:50;;;;;;;7.53;3.23;;;14.70;97.90;;;;;;10295604;28;20562;-82
2023/01/01 08:32:53;;;;;;;6.00;3.53;;;14.80;95.80;;;;;;10277351;28;20234;-82
2023/01/01 08:37:55;;;;;;;4.00;2.40;;;14.70;97.00;;;;;;10295293;28;20197;-82
2023/01/01 08:42:58;;;;;;;7.30;3.50;;;14.70;96.40;;;;;;10277785;28;20703;-82
2023/01/01 08:48:00;;;;;;;6.00;2.90;;;14.90;97.70;;;;;;10294551;28;20570;-82
2023/01/01 08:53:03;;;;;;;5.17;3.20;;;15.10;96.60;;;;;;10294504;28;20213;-82
2023/01/01 08:58:06;;;;;;;5.07;3.37;;;15.40;96.10;;;;;;10294278;28;20218;-82
2023/01/01 09:03:09;;;;;;;1.57;1.47;;;15.70;95.10;;;;;;10294371;28;20226;-82
2023/01/01 09:08:16;;;;;;;4.50;2.57;;;16.20;97.50;;;;;;10276602;28;20206;-82
2023/01/01 09:13:20;;;;;;;5.27;1.90;;;16.30;94.70;;;;;;10293228;28;20256;-82
2023/01/01 09:18:23;;;;;;;4.33;2.03;;;16.50;93.80;;;;;;10293455;28;20201;-82
2023/01/01 09:23:25;;;;;;;1.80;1.20;;;16.50;94.90;;;;;;10275758;28;20234;-82
2023/01/01 09:28:28;;;;;;;6.60;2.60;;;16.60;94.40;;;;;;10292608;28;20244;-82
2023/01/01 09:33:34;;;;;;;4.37;1.87;;;16.60;91.60;;;;;;10275333;28;20261;-82
2023/01/01 09:38:36;;;;;;;4.77;2.60;;;16.70;93.00;;;;;;10292278;28;20209;-82
2023/01/01 09:43:52;;;;;;;8.20;3.30;;;16.70;93.20;;;;;;10275251;28;20225;-82
2023/01/01 09:49:01;;;;;;;6.03;2.63;;;16.70;92.40;;;;;;10274598;28;20749;-82
2023/01/01 09:54:14;;;;;;;3.83;2.80;;;16.70;92.60;;;;;;10291754;28;20214;-82
2023/01/01 09:59:17;;;;;;;4.30;1.90;;;16.70;92.60;;;;;;10291549;28;20213;-82
2023/01/01 10:04:40;;;;;;;4.03;2.50;;;16.70;92.70;;;;;;10291758;28;20229;-82
2023/01/01 10:09:58;;;;;;;1.83;1.03;;;16.70;92.60;;;;;;10291948;28;20626;-82
2023/01/01 10:15:14;;;;;;;4.27;2.90;;;16.80;92.90;;;;;;10291222;28;20244;-82
2023/01/01 10:20:19;;;;;;;3.70;2.50;;;16.80;92.90;;;;;;10290538;28;20209;-82
2023/01/01 10:25:26;;;;;;;8.93;2.63;;;16.80;93.00;;;;;;10288852;28;20225;-82
2023/01/01 10:30:29;;;;;;;3.27;1.70;;;16.70;90.80;;;;;;10290971;28;20230;-82
2023/01/01 10:35:44;;;;;;;3.37;1.80;;;16.70;92.40;;;;;;10273551;28;20210;-82
2023/01/01 10:40:47;;;;;;;8.93;2.63;;;16.80;92.10;;;;;;10291139;28;20206;-82
2023/01/01 10:45:53;;;;;;;4.53;2.43;;;16.70;91.60;;;;;;10290769;28;20632;-82
2023/01/01 10:50:56;;;;;;;4.00;1.73;;;16.70;91.20;;;;;;10290796;28;20630;-82
2023/01/01 10:56:11;;;;;;;5.13;2.20;;;16.70;92.10;;;;;;10290571;28;20213;-82
2023/01/01 11:01:26;;;;;;;3.67;2.43;;;16.70;92.60;;;;;;10290165;28;20280;-82
2023/01/01 11:06:37;;;;;;;6.57;2.90;;;16.70;92.80;;;;;;10272762;28;20244;-82
2023/01/01 11:11:45;;;;;;;7.50;2.80;;;16.60;91.50;;;;;;10290373;28;20256;-82
2023/01/01 11:16:48;;;;;;;6.23;2.17;;;16.60;92.60;;;;;;10273139;28;20205;-82
2023/01/01 11:21:51;;;;;;;3.70;2.43;;;16.60;92.30;;;;;;10290292;28;20252;-82
2023/01/01 11:27:10;;;;;;;8.93;3.13;;;16.60;90.90;;;;;;10257241;28;20264;-82
2023/01/01 11:32:22;;;;;;;8.57;3.17;;;16.60;91.90;;;;;;10271979;28;20225;-82
2023/01/01 11:37:34;;;;;;;3.93;3.40;;;16.60;91.80;;;;;;10297544;28;20198;-82
2023/01/01 11:42:55;;;;;;;2.53;2.33;;;16.60;92.60;;;;;;10297334;28;20202;-82
2023/01/01 11:48:11;;;;;;;4.27;2.60;;;16.70;91.80;;;;;;10280088;28;20279;-82
2023/01/01 11:53:22;;;;;;;2.83;1.90;;;16.70;91.70;;;;;;10296602;28;20569;-82
2023/01/01 11:58:36;;;;;;;9.30;3.03;;;16.70;92.50;;;;;;10279666;28;20655;-82
2023/01/01 12:03:39;;;;;;;3.70;3.03;;;16.60;90.70;;;;;;10295888;28;20300;-82
2023/01/01 12:08:50;;;;;;;4.87;2.20;;;16.70;91.60;;;;;;10296381;28;20197;-82
2023/01/01 12:13:59;;;;;;;4.93;2.87;;;16.60;92.20;;;;;;10295825;28;20206;-82
2023/01/01 12:19:08;;;;;;;3.83;2.67;;;16.60;91.90;;;;;;10295620;28;20233;-82
2023/01/01 12:24:11;;;;;;;2.73;2.37;;;16.70;91.60;;;;;;10295030;28;20264;-82
2023/01/01 12:29:28;;;;;;;3.47;2.43;;;16.60;92.40;;;;;;10292349;28;20202;-82
2023/01/01 12:34:58;;;;;;;4.20;3.20;;;16.60;87.70;;;;;;10310028;28;20594;-81
2023/01/01 12:40:31;;;;;;;6.23;3.40;;;16.30;88.40;;;;;;10301124;28;20276;-83
2023/01/01 12:45:57;;;;;;;8.90;3.97;;;16.30;89.30;;;;;;10253990;28;20242;-83
2023/01/01 12:51:18;;;;;;;7.83;3.93;;;16.40;89.30;;;;;;10259101;28;20701;-82
2023/01/01 12:56:23;;;;;;;6.53;4.00;;;16.40;89.50;;;;;;10311629;28;20241;-82
2023/01/01 13:01:34;;;;;;;8.27;3.80;;;16.30;90.00;;;;;;10315939;28;20832;-82
2023/01/01 13:06:40;;;;;;;6.60;3.40;;;16.30;90.30;;;;;;10322651;28;20311;-82
2023/01/01 13:12:03;;;;;;;6.03;3.90;;;16.40;90.30;;;;;;10326315;28;20201;-82
2023/01/01 13:17:24;;;;;;;7.07;4.57;;;16.30;90.70;;;;;;10298573;28;20299;-81
2023/01/01 13:22:26;;;;;;;5.13;3.47;;;16.20;90.50;;;;;;10257340;28;20256;-82
2023/01/01 13:27:59;;;;;;;7.33;4.30;;;16.20;91.20;;;;;;10287616;28;20249;-81
2023/01/01 13:33:24;;;;;;;9.93;3.40;;;16.30;91.30;;;;;;10268014;28;20321;-82
2023/01/01 13:38:47;;;;;;;6.63;3.93;;;15.90;96.30;;;;;;10279093;28;20320;-82
2023/01/01 13:43:50;;;;;;;8.30;3.37;;;16.20;97.70;;;;;;10293555;28;20306;-82
2023/01/01 13:49:14;;;;;;;8.80;3.37;;;16.30;96.30;;;;;;10322187;28;20236;-82
2023/01/01 13:54:40;;;;;;;9.97;3.70;;;16.40;96.20;;;;;;10298837;28;20294;-82
2023/01/01 13:59:52;;;;;;;8.37;3.80;;;16.30;95.50;;;;;;10297681;28;20292;-82
2023/01/01 14:05:17;;;;;;;6.13;3.17;;;16.30;94.70;;;;;;10291522;28;20772;-82
2023/01/01 14:10:48;;;;;;;8.80;3.43;;;16.30;95.10;;;;;;10299472;28;20232;-82
2023/01/01 14:15:57;;;;;;;12.37;3.50;;;16.20;95.90;;;;;;10293413;28;20334;-82
2023/01/01 14:21:01;;;;;;;5.90;3.43;;;16.20;95.70;;;;;;10281719;28;20748;-83
2023/01/01 14:26:10;;;;;;;5.90;2.90;;;16.10;95.80;;;;;;10273084;28;20261;-82
2023/01/01 14:31:22;;;;;;;5.30;3.03;;;16.00;96.10;;;;;;10265857;28;20319;-83
2023/01/01 14:36:27;;;;;;;7.00;3.17;;;16.00;96.50;;;;;;10265875;28;20259;-82
2023/01/01 14:41:36;;;;;;;11.50;3.97;;;15.90;94.60;;;;;;10283002;28;20289;-82
2023/01/01 14:46:45;;;;;;;7.10;3.80;;;15.80;94.60;;;;;;10286223;28;20284;-82
2023/01/01 14:52:22;;;;;;;6.77;3.50;;;15.70;97.00;;;;;;10325333;28;20263;-82
2023/01/01 14:57:30;;;;;;;5.47;3.07;;;15.60;95.40;;;;;;10297212;28;20587;-82
2023/01/01 15:02:37;;;;;;;5.73;4.43;;;15.50;96.90;;;;;;10285263;28;20311;-82
2023/01/01 15:07:40;;;;;;;7.50;3.63;;;15.40;96.50;;;;;;10284928;28;20249;-82
2023/01/01 15:12:43;;;;;;;5.47;3.77;;;15.30;98.20;;;;;;10291500;28;20810;-81
2023/01/01 15:17:46;;;;;;;7.43;3.43;;;15.30;97.70;;;;;;10273067;28;20248;-82
2023/01/01 15:22:51;;;;;;;6.67;4.57;;;15.20;98.70;;;;;;10274995;28;20242;-82
2023/01/01 15:27:54;;;;;;;6.17;3.20;;;15.10;97.30;;;;;;10309704;28;20253;-82
2023/01/01 15:33:13;;;;;;;5.37;3.30;;;15.20;99.10;;;;;;10243577;28;20716;-83
2023/01/01 15:38:24;;;;;;;5.70;3.50;;;15.30;98.70;;;;;;10277253;28;20233;-82
2023/01/01 15:43:29;;;;;;;8.03;4.37;;;15.30;97.90;;;;;;10291804;28;20261;-83
2023/01/01 15:48:36;;;;;;;6.73;4.67;;;15.30;97.40;;;;;;10274058;28;20315;-82
2023/01/01 15:53:51;;;;;;;11.63;4.60;;;15.10;98.30;;;;;;10292196;28;20258;-82
2023/01/01 15:58:55;;;;;;;9.27;6.43;;;15.10;98.20;;;;;;10291994;28;20230;-82
2023/01/01 16:04:09;;;;;;;23.77;8.43;;;14.90;97.50;;;;;;10275548;28;20282;-82
2023/01/01 16:09:13;;;;;;;17.63;10.10;;;14.50;97.90;;;;;;10306275;28;20233;-82
2023/01/01 16:14:15;;;;;;;20.73;10.50;;;13.50;99.90;;;;;;10291177;28;20229;-81
2023/01/01 16:19:21;;;;;;;15.27;10.00;;;13.10;99.90;;;;;;10291297;28;20295;-82
2023/01/01 16:24:24;;;;;;;22.23;11.63;;;12.70;99.90;;;;;;10291155;28;20260;-81
2023/01/01 16:29:27;;;;;;;13.10;7.90;;;12.30;99.90;;;;;;10297458;28;20229;-82
2023/01/01 16:34:29;;;;;;;28.80;10.97;;;12.00;99.90;;;;;;10273280;28;20292;-82
2023/01/01 16:39:37;;;;;;;15.07;8.77;;;12.20;99.90;;;;;;10289416;28;20256;-82
2023/01/01 16:44:42;;;;;;;11.87;5.87;;;12.50;99.90;;;;;;10306791;28;20565;-82
2023/01/01 16:49:45;;;;;;;28.57;15.50;;;12.90;99.90;;;;;;10291392;28;20621;-82
2023/01/01 16:54:47;;;;;;;26.03;13.07;;;12.80;99.90;;;;;;10307709;28;20310;-82
2023/01/01 16:59:50;;;;;;;17.57;8.43;;;12.40;99.90;;;;;;10318319;28;20253;-82
2023/01/01 17:04:52;;;;;;;29.00;14.47;;;13.00;99.90;;;;;;10279394;28;20335;-82
2023/01/01 17:09:55;;;;;;;24.53;14.57;;;12.70;99.90;;;;;;10284526;28;20236;-82
2023/01/01 17:14:58;;;;;;;28.53;15.93;;;12.20;99.90;;;;;;10271004;28;20621;-82
2023/01/01 17:20:01;;;;;;;33.47;15.30;;;11.90;99.90;;;;;;10274093;28;20254;-82
2023/01/01 17:25:04;;;;;;;30.23;14.37;;;11.90;99.90;;;;;;10284599;28;20316;-82
2023/01/01 17:30:07;;;;;;;27.97;16.77;;;11.70;99.90;;;;;;10255698;28;20289;-82
2023/01/01 17:35:09;;;;;;;30.07;17.63;;;11.80;99.90;;;;;;10287603;28;20241;-82
2023/01/01 17:40:12;;;;;;;32.33;16.63;;;11.60;99.90;;;;;;10282418;28;20646;-82
2023/01/01 17:45:15;;;;;;;27.37;14.57;;;11.60;99.90;;;;;;10287974;28;20257;-82
2023/01/01 17:50:18;;;;;;;26.50;13.30;;;11.70;99.90;;;;;;10309290;28;20717;-82
2023/01/01 17:55:21;;;;;;;25.70;13.73;;;11.70;99.90;;;;;;10323869;28;20250;-81
2023/01/01 18:00:24;;;;;;;28.87;14.87;;;11.50;99.90;;;;;;10287625;28;20249;-81
2023/01/01 18:05:26;;;;;;;32.47;14.80;;;11.50;99.90;;;;;;10247007;29;20266;-80
2023/01/01 18:10:29;;;;;;;30.50;16.77;;;11.10;99.90;;;;;;10297502;28;20229;-81
2023/01/01 18:15:35;;;;;;;31.93;16.73;;;11.00;99.90;;;;;;10287078;28;20241;-81
2023/01/01 18:20:40;;;;;;;36.00;17.97;;;10.80;99.90;;;;;;10280619;28;20772;-82
2023/01/01 18:25:42;;;;;;;39.33;21.03;;;10.70;99.90;;;;;;10285624;28;20332;-81
2023/01/01 18:30:45;;;;;;;41.50;19.20;;;;;;;;;;10291591;28;20266;-81
2023/01/01 18:35:48;;;;;;;30.00;17.63;;;10.40;99.90;;;;;;10269737;28;20245;-81
2023/01/01 18:41:19;;;;;;;41.53;20.70;;;10.30;99.90;;;;;;10285940;28;20237;-81
2023/01/01 18:46:22;;;;;;;38.03;17.73;;;10.30;99.90;;;;;;10276332;28;20745;-82
2023/01/01 18:51:25;;;;;;;21.67;11.23;;;10.30;99.90;;;;;;10299514;28;20237;-82
2023/01/01 18:56:28;;;;;;;32.73;15.63;;;10.20;99.90;;;;;;10278117;28;20234;-82
2023/01/01 19:01:32;;;;;;;22.53;12.93;;;10.50;99.90;;;;;;9933925;28;10000178;-83
2023/01/01 19:06:35;;;;;;;19.63;11.93;;;10.50;99.90;;;;;;10281894;28;20342;-83
2023/01/01 19:11:38;;;;;;;25.37;14.53;;;10.50;99.90;;;;;;10290919;28;20286;-83
2023/01/01 19:16:41;;;;;;;19.80;12.10;;;10.50;99.90;;;;;;10307862;28;20236;-83
2023/01/01 19:21:45;;;;;;;20.27;13.37;;;10.50;99.90;;;;;;10286749;28;20302;-82
2023/01/01 19:27:11;;;;;;;19.77;12.00;;;10.40;99.90;;;;;;10280599;28;20862;-82
2023/01/01 19:32:14;;;;;;;21.20;13.97;;;10.40;99.90;;;;;;10282380;28;20283;-82
2023/01/01 19:37:16;;;;;;;26.27;15.47;;;10.40;99.90;;;;;;10280126;28;20230;-82
2023/01/01 19:42:19;;;;;;;22.47;13.30;;;10.30;99.90;;;;;;10281589;28;20248;-82
2023/01/01 19:47:21;;;;;;;23.83;15.97;;;10.30;99.90;;;;;;10263253;28;20265;-83
2023/01/01 19:52:24;;;;;;;30.40;17.37;;;10.30;99.90;;;;;;10267787;28;20230;-81
2023/01/01 19:57:27;;;;;;;34.43;17.90;;;10.40;99.90;;;;;;10292913;28;20237;-81
2023/01/01 20:02:29;;;;;;;45.50;25.80;;;10.50;99.90;;;;;;10256560;28;20304;-81
2023/01/01 20:07:49;;;;;;;61.13;31.20;;;10.40;99.90;;;;;;10284498;28;20252;-81
2023/01/01 20:12:52;;;;;;;88.67;50.37;;;10.50;99.90;;;;;;10287055;28;20229;-82
2023/01/01 20:17:55;;;;;;;98.13;49.90;;;10.50;99.90;;;;;;10272355;28;20245;-82
2023/01/01 20:22:57;;;;;;;49.43;27.33;;;10.50;99.90;;;;;;10285915;28;20287;-82
2023/01/01 20:33:21;;;;;;;31.77;19.53;;;10.60;99.90;;;;;;10268241;28;20331;-82
2023/01/01 20:38:23;;;;;;;27.63;16.93;;;10.60;99.90;;;;;;10283308;28;20233;-82
2023/01/01 20:43:26;;;;;;;32.77;18.17;;;10.60;99.90;;;;;;10271347;28;20233;-82
2023/01/01 20:48:28;;;;;;;31.03;17.27;;;10.60;99.90;;;;;;10306183;28;20267;-81
2023/01/01 20:53:31;;;;;;;32.07;17.37;;;10.40;99.90;;;;;;10286072;28;20292;-81
2023/01/01 20:58:34;;;;;;;45.53;22.57;;;10.30;99.90;;;;;;10280041;28;20233;-81
2023/01/01 21:03:36;;;;;;;64.03;36.17;;;10.20;99.90;;;;;;10294068;28;20959;-81
2023/01/01 21:08:39;;;;;;;62.70;34.93;;;10.20;99.90;;;;;;10290414;28;20257;-80
2023/01/01 21:13:45;;;;;;;40.90;21.53;;;10.20;99.90;;;;;;10279336;28;20233;-81
2023/01/01 21:18:48;;;;;;;31.93;16.90;;;10.30;99.90;;;;;;10268439;28;20257;-80
2023/01/01 21:23:55;;;;;;;41.57;20.80;;;10.40;99.90;;;;;;10282376;28;20237;-81
2023/01/01 21:28:59;;;;;;;42.30;26.13;;;;;;;;;;10282467;28;20305;-81
2023/01/01 21:34:19;;;;;;;49.97;27.27;;;10.40;99.90;;;;;;10277118;28;21050;-81
2023/01/01 21:39:28;;;;;;;60.40;31.97;;;10.50;99.90;;;;;;10274386;28;20236;-80
2023/01/01 21:44:30;;;;;;;69.43;34.53;;;10.50;99.90;;;;;;10285716;28;20225;-81
2023/01/01 21:49:35;;;;;;;66.90;35.77;;;10.60;99.90;;;;;;10284872;28;20320;-81
2023/01/01 21:54:38;;;;;;;61.00;35.07;;;10.50;99.90;;;;;;10267192;28;20221;-81
2023/01/01 21:59:46;;;;;;;58.53;29.33;;;10.50;99.90;;;;;;10261102;28;20674;-82
2023/01/01 22:04:49;;;;;;;41.50;22.53;;;10.40;99.90;;;;;;10270110;28;21055;-82
2023/01/01 22:10:23;;;;;;;34.53;17.97;;;10.40;99.90;;;;;;10246365;28;20320;-84
2023/01/01 22:15:42;;;;;;;34.63;17.10;;;10.40;99.90;;;;;;10284467;28;20241;-83
2023/01/01 22:20:46;;;;;;;28.20;15.60;;;10.30;99.90;;;;;;10270027;28;20268;-82
2023/01/01 22:25:49;;;;;;;29.87;16.50;;;10.30;99.90;;;;;;10272925;28;20686;-83
2023/01/01 22:30:56;;;;;;;27.23;15.97;;;10.20;99.90;;;;;;10273845;28;21011;-83
2023/01/01 22:35:59;;;;;;;26.30;14.87;;;10.20;99.90;;;;;;10273097;28;20240;-82
2023/01/01 22:41:02;;;;;;;34.60;17.47;;;10.20;99.90;;;;;;10270497;28;20249;-82
2023/01/01 22:46:31;;;;;;;17.17;10.23;;;10.20;99.90;;;;;;10283044;28;20658;-82
2023/01/01 22:51:43;;;;;;;11.30;7.17;;;10.20;99.90;;;;;;10269452;28;20282;-82
2023/01/01 22:57:01;;;;;;;17.50;10.17;;;10.30;99.90;;;;;;10262555;28;20322;-83
2023/01/01 23:02:05;;;;;;;17.27;8.97;;;10.40;99.90;;;;;;10268720;28;20294;-83
2023/01/01 23:07:13;;;;;;;15.77;10.47;;;10.60;99.90;;;;;;10249878;28;20257;-82
2023/01/01 23:12:15;;;;;;;22.67;12.07;;;10.70;99.90;;;;;;10252066;28;20233;-82
2023/01/01 23:17:18;;;;;;;30.73;14.83;;;10.80;99.90;;;;;;10307225;28;20240;-82
2023/01/01 23:22:20;;;;;;;20.47;12.33;;;10.80;99.90;;;;;;10325609;28;20645;-82
2023/01/01 23:27:23;;;;;;;23.40;13.67;;;10.80;99.90;;;;;;10299460;28;20305;-82
2023/01/01 23:32:26;;;;;;;15.23;10.47;;;10.70;99.90;;;;;;10273961;28;20734;-82
2023/01/01 23:37:29;;;;;;;23.53;9.90;;;10.80;99.90;;;;;;10267914;28;20722;-82
2023/01/01 23:42:31;;;;;;;21.50;12.50;;;10.80;99.90;;;;;;10249973;28;20665;-82
2023/01/01 23:47:34;;;;;;;27.90;13.97;;;10.70;99.90;;;;;;10325108;28;20256;-82
2023/01/01 23:52:37;;;;;;;20.77;10.77;;;10.70;99.90;;;;;;10332747;28;20307;-82
2023/01/01 23:57:40;;;;;;;22.83;12.60;;;10.70;99.90;;;;;;10292801;28;20755;-82
